sensor_id;sensor_type;location;lat;lon;timestamp;pressure;altitude;pressure_sealevel;temperature
82636;BMP280;72317;37.280;-121.948;2024-01-06T03:19:02;101079.56;;;12.27
82636;BMP280;72317;37.280;-121.948;2024-01-06T03:21:28;101066.91;;;12.05
82636;BMP280;72317;37.280;-121.948;2024-01-06T03:23:54;101028.31;;;11.90
82636;BMP280;72317;37.280;-121.948;2024-01-06T03:26:21;100973.13;;;11.93
82636;BMP280;72317;37.280;-121.948;2024-01-06T03:28:50;100821.13;;;11.88
82636;BMP280;72317;37.280;-121.948;2024-01-06T03:31:16;100687.50;;;11.74
82636;BMP280;72317;37.280;-121.948;2024-01-06T03:33:44;100268.78;;;11.78
82636;BMP280;72317;37.280;-121.948;2024-01-06T03:36:12;100172.16;;;11.85
82636;BMP280;72317;37.280;-121.948;2024-01-06T03:38:39;100130.38;;;11.84
82636;BMP280;72317;37.280;-121.948;2024-01-06T03:41:05;100118.44;;;11.67
82636;BMP280;72317;37.280;-121.948;2024-01-06T03:43:31;100156.44;;;11.80
82636;BMP280;72317;37.280;-121.948;2024-01-06T03:45:57;100197.41;;;11.66
82636;BMP280;72317;37.280;-121.948;2024-01-06T03:48:26;100263.75;;;11.69
82636;BMP280;72317;37.280;-121.948;2024-01-06T03:50:52;100299.25;;;11.45
82636;BMP280;72317;37.280;-121.948;2024-01-06T03:53:18;100320.31;;;11.43
82636;BMP280;72317;37.280;-121.948;2024-01-06T03:55:44;100337.28;;;11.50
82636;BMP280;72317;37.280;-121.948;2024-01-06T03:58:10;100334.63;;;11.61
82636;BMP280;72317;37.280;-121.948;2024-01-06T04:00:37;100337.72;;;11.63
82636;BMP280;72317;37.280;-121.948;2024-01-06T04:03:03;100351.88;;;11.57
82636;BMP280;72317;37.280;-121.948;2024-01-06T04:05:31;100357.56;;;11.51
82636;BMP280;72317;37.280;-121.948;2024-01-06T04:07:57;100357.16;;;11.46
82636;BMP280;72317;37.280;-121.948;2024-01-06T04:10:23;100373.56;;;11.34
82636;BMP280;72317;37.280;-121.948;2024-01-06T04:12:49;100379.19;;;11.21
82636;BMP280;72317;37.280;-121.948;2024-01-06T04:15:16;100377.63;;;11.17
82636;BMP280;72317;37.280;-121.948;2024-01-06T04:17:42;100361.97;;;11.23
82636;BMP280;72317;37.280;-121.948;2024-01-06T04:20:09;100364.22;;;11.20
82636;BMP280;72317;37.280;-121.948;2024-01-06T04:22:38;100372.22;;;11.13
82636;BMP280;72317;37.280;-121.948;2024-01-06T04:25:05;100366.88;;;11.13
82636;BMP280;72317;37.280;-121.948;2024-01-06T04:27:31;100363.03;;;11.14
82636;BMP280;72317;37.280;-121.948;2024-01-06T04:29:59;100364.13;;;11.06
82636;BMP280;72317;37.280;-121.948;2024-01-06T04:32:25;100363.41;;;11.09
82636;BMP280;72317;37.280;-121.948;2024-01-06T04:34:52;100364.47;;;11.01
82636;BMP280;72317;37.280;-121.948;2024-01-06T04:37:18;100375.97;;;11.05
82636;BMP280;72317;37.280;-121.948;2024-01-06T04:39:44;100368.69;;;11.02
82636;BMP280;72317;37.280;-121.948;2024-01-06T04:42:10;100390.00;;;10.88
82636;BMP280;72317;37.280;-121.948;2024-01-06T04:44:36;100396.06;;;10.81
82636;BMP280;72317;37.280;-121.948;2024-01-06T04:47:03;100431.34;;;10.53
82636;BMP280;72317;37.280;-121.948;2024-01-06T04:49:29;100452.22;;;10.41
82636;BMP280;72317;37.280;-121.948;2024-01-06T04:51:55;100470.97;;;10.41
82636;BMP280;72317;37.280;-121.948;2024-01-06T04:54:22;100463.06;;;10.51
82636;BMP280;72317;37.280;-121.948;2024-01-06T04:56:48;100466.69;;;10.36
82636;BMP280;72317;37.280;-121.948;2024-01-06T04:59:14;100460.56;;;10.36
82636;BMP280;72317;37.280;-121.948;2024-01-06T05:01:40;100460.25;;;10.41
82636;BMP280;72317;37.280;-121.948;2024-01-06T05:04:06;100449.91;;;10.39
82636;BMP280;72317;37.280;-121.948;2024-01-06T05:06:33;100446.56;;;10.46
82636;BMP280;72317;37.280;-121.948;2024-01-06T05:08:59;100449.50;;;10.37
82636;BMP280;72317;37.280;-121.948;2024-01-06T05:11:25;100457.38;;;10.26
82636;BMP280;72317;37.280;-121.948;2024-01-06T05:13:51;100457.13;;;10.35
82636;BMP280;72317;37.280;-121.948;2024-01-06T05:16:17;100454.88;;;10.41
82636;BMP280;72317;37.280;-121.948;2024-01-06T05:18:43;100460.91;;;10.30
82636;BMP280;72317;37.280;-121.948;2024-01-06T05:21:09;100472.94;;;10.17
82636;BMP280;72317;37.280;-121.948;2024-01-06T05:23:36;100480.72;;;10.26
82636;BMP280;72317;37.280;-121.948;2024-01-06T05:26:02;100471.69;;;10.38
82636;BMP280;72317;37.280;-121.948;2024-01-06T05:28:28;100468.25;;;10.37
82636;BMP280;72317;37.280;-121.948;2024-01-06T05:30:54;100479.25;;;10.32
82636;BMP280;72317;37.280;-121.948;2024-01-06T05:33:20;100477.00;;;10.34
82636;BMP280;72317;37.280;-121.948;2024-01-06T05:35:46;100479.44;;;10.16
82636;BMP280;72317;37.280;-121.948;2024-01-06T05:38:13;100479.59;;;10.27
82636;BMP280;72317;37.280;-121.948;2024-01-06T05:40:39;100485.88;;;10.12
82636;BMP280;72317;37.280;-121.948;2024-01-06T05:43:05;100501.50;;;10.10
82636;BMP280;72317;37.280;-121.948;2024-01-06T05:45:31;100495.97;;;9.99
82636;BMP280;72317;37.280;-121.948;2024-01-06T05:47:57;100498.84;;;9.87
82636;BMP280;72317;37.280;-121.948;2024-01-06T05:50:24;100496.66;;;9.92
82636;BMP280;72317;37.280;-121.948;2024-01-06T05:52:50;100484.88;;;9.97
82636;BMP280;72317;37.280;-121.948;2024-01-06T05:55:36;100489.34;;;9.66
82636;BMP280;72317;37.280;-121.948;2024-01-06T05:58:02;100496.38;;;9.52
82636;BMP280;72317;37.280;-121.948;2024-01-06T06:00:28;100475.44;;;9.57
82636;BMP280;72317;37.280;-121.948;2024-01-06T06:02:57;100386.91;;;9.66
82636;BMP280;72317;37.280;-121.948;2024-01-06T06:05:24;100373.53;;;9.66
82636;BMP280;72317;37.280;-121.948;2024-01-06T06:07:50;100388.34;;;9.37
82636;BMP280;72317;37.280;-121.948;2024-01-06T06:10:16;100367.97;;;9.29
82636;BMP280;72317;37.280;-121.948;2024-01-06T06:12:44;100333.78;;;9.64
82636;BMP280;72317;37.280;-121.948;2024-01-06T06:15:10;100215.63;;;9.62
82636;BMP280;72317;37.280;-121.948;2024-01-06T06:17:37;100188.84;;;9.59
82636;BMP280;72317;37.280;-121.948;2024-01-06T06:20:03;100169.84;;;9.67
82636;BMP280;72317;37.280;-121.948;2024-01-06T06:22:31;100170.00;;;9.48
82636;BMP280;72317;37.280;-121.948;2024-01-06T06:24:59;100166.19;;;9.49
82636;BMP280;72317;37.280;-121.948;2024-01-06T06:27:26;100149.81;;;9.51
82636;BMP280;72317;37.280;-121.948;2024-01-06T06:29:53;100141.38;;;9.52
82636;BMP280;72317;37.280;-121.948;2024-01-06T06:32:19;100131.22;;;9.31
82636;BMP280;72317;37.280;-121.948;2024-01-06T06:34:45;100119.78;;;9.34
82636;BMP280;72317;37.280;-121.948;2024-01-06T06:37:11;100098.44;;;9.38
82636;BMP280;72317;37.280;-121.948;2024-01-06T06:39:38;100088.13;;;9.36
82636;BMP280;72317;37.280;-121.948;2024-01-06T06:42:04;100087.94;;;9.22
82636;BMP280;72317;37.280;-121.948;2024-01-06T06:44:30;100060.59;;;9.32
82636;BMP280;72317;37.280;-121.948;2024-01-06T06:46:57;100042.31;;;9.38
82636;BMP280;72317;37.280;-121.948;2024-01-06T06:49:23;100048.91;;;9.14
82636;BMP280;72317;37.280;-121.948;2024-01-06T06:51:49;100022.50;;;9.09
82636;BMP280;72317;37.280;-121.948;2024-01-06T06:54:15;100001.09;;;9.05
82636;BMP280;72317;37.280;-121.948;2024-01-06T06:56:42;99955.38;;;9.17
82636;BMP280;72317;37.280;-121.948;2024-01-06T06:59:09;99950.44;;;9.19
82636;BMP280;72317;37.280;-121.948;2024-01-06T07:01:35;99905.25;;;9.07
82636;BMP280;72317;37.280;-121.948;2024-01-06T07:04:02;99828.81;;;8.96
82636;BMP280;72317;37.280;-121.948;2024-01-06T07:06:29;99825.97;;;9.22
82636;BMP280;72317;37.280;-121.948;2024-01-06T07:08:56;99845.22;;;8.98
82636;BMP280;72317;37.280;-121.948;2024-01-06T07:11:22;99844.09;;;8.95
82636;BMP280;72317;37.280;-121.948;2024-01-06T07:13:49;99825.50;;;9.09
82636;BMP280;72317;37.280;-121.948;2024-01-06T07:16:15;99828.88;;;9.06
82636;BMP280;72317;37.280;-121.948;2024-01-06T07:18:42;99827.97;;;8.88
82636;BMP280;72317;37.280;-121.948;2024-01-06T07:21:08;99829.00;;;8.76
82636;BMP280;72317;37.280;-121.948;2024-01-06T07:23:34;99820.25;;;8.79
82636;BMP280;72317;37.280;-121.948;2024-01-06T07:26:01;99801.25;;;8.88
82636;BMP280;72317;37.280;-121.948;2024-01-06T07:28:27;99799.38;;;8.92
82636;BMP280;72317;37.280;-121.948;2024-01-06T07:30:54;99797.44;;;8.85
82636;BMP280;72317;37.280;-121.948;2024-01-06T07:33:21;99782.16;;;8.89
82636;BMP280;72317;37.280;-121.948;2024-01-06T07:35:47;99792.66;;;8.68
82636;BMP280;72317;37.280;-121.948;2024-01-06T07:38:14;99791.59;;;8.76
82636;BMP280;72317;37.280;-121.948;2024-01-06T07:40:40;99787.69;;;8.67
82636;BMP280;72317;37.280;-121.948;2024-01-06T07:43:07;99790.38;;;8.67
82636;BMP280;72317;37.280;-121.948;2024-01-06T07:45:33;99777.41;;;8.69
82636;BMP280;72317;37.280;-121.948;2024-01-06T07:47:59;99755.75;;;8.77
82636;BMP280;72317;37.280;-121.948;2024-01-06T07:50:26;99755.66;;;8.67
82636;BMP280;72317;37.280;-121.948;2024-01-06T07:52:53;99771.19;;;8.54
82636;BMP280;72317;37.280;-121.948;2024-01-06T07:55:20;99758.59;;;8.54
82636;BMP280;72317;37.280;-121.948;2024-01-06T07:57:46;99780.50;;;8.37
82636;BMP280;72317;37.280;-121.948;2024-01-06T08:00:13;99758.47;;;8.47
82636;BMP280;72317;37.280;-121.948;2024-01-06T08:02:42;99749.81;;;8.54
82636;BMP280;72317;37.280;-121.948;2024-01-06T08:05:08;99741.72;;;8.43
82636;BMP280;72317;37.280;-121.948;2024-01-06T08:07:35;99753.00;;;8.29
82636;BMP280;72317;37.280;-121.948;2024-01-06T08:10:01;99746.84;;;8.25
82636;BMP280;72317;37.280;-121.948;2024-01-06T08:12:30;99740.16;;;8.09
82636;BMP280;72317;37.280;-121.948;2024-01-06T08:14:57;99716.16;;;8.09
82636;BMP280;72317;37.280;-121.948;2024-01-06T08:17:23;99692.78;;;7.98
82636;BMP280;72317;37.280;-121.948;2024-01-06T08:19:49;99670.22;;;7.92
82636;BMP280;72317;37.280;-121.948;2024-01-06T08:22:15;99633.06;;;8.10
82636;BMP280;72317;37.280;-121.948;2024-01-06T08:24:42;99629.69;;;8.13
82636;BMP280;72317;37.280;-121.948;2024-01-06T08:27:08;99647.97;;;7.77
82636;BMP280;72317;37.280;-121.948;2024-01-06T08:29:34;99630.91;;;7.86
82636;BMP280;72317;37.280;-121.948;2024-01-06T08:32:01;99607.53;;;8.09
82636;BMP280;72317;37.280;-121.948;2024-01-06T08:34:27;99619.88;;;7.87
82636;BMP280;72317;37.280;-121.948;2024-01-06T08:36:53;99603.28;;;8.04
82636;BMP280;72317;37.280;-121.948;2024-01-06T08:39:19;99591.06;;;8.03
82636;BMP280;72317;37.280;-121.948;2024-01-06T08:41:47;99612.03;;;7.64
82636;BMP280;72317;37.280;-121.948;2024-01-06T08:44:13;99590.25;;;7.62
82636;BMP280;72317;37.280;-121.948;2024-01-06T08:46:40;99571.75;;;7.76
82636;BMP280;72317;37.280;-121.948;2024-01-06T08:49:06;99569.38;;;7.64
82636;BMP280;72317;37.280;-121.948;2024-01-06T08:51:32;99554.16;;;7.68
82636;BMP280;72317;37.280;-121.948;2024-01-06T08:53:58;99534.38;;;7.69
82636;BMP280;72317;37.280;-121.948;2024-01-06T08:56:25;99513.91;;;7.81
82636;BMP280;72317;37.280;-121.948;2024-01-06T08:58:51;99503.31;;;7.88
82636;BMP280;72317;37.280;-121.948;2024-01-06T09:01:17;99480.88;;;7.96
82636;BMP280;72317;37.280;-121.948;2024-01-06T09:03:44;99494.19;;;7.89
82636;BMP280;72317;37.280;-121.948;2024-01-06T09:06:10;99516.91;;;7.75
82636;BMP280;72317;37.280;-121.948;2024-01-06T09:08:36;99509.47;;;7.95
82636;BMP280;72317;37.280;-121.948;2024-01-06T09:11:02;99493.91;;;8.04
82636;BMP280;72317;37.280;-121.948;2024-01-06T09:13:28;99515.16;;;7.90
82636;BMP280;72317;37.280;-121.948;2024-01-06T09:15:54;99553.06;;;7.69
82636;BMP280;72317;37.280;-121.948;2024-01-06T09:18:21;99553.09;;;7.76
82636;BMP280;72317;37.280;-121.948;2024-01-06T09:20:47;99559.16;;;7.70
82636;BMP280;72317;37.280;-121.948;2024-01-06T09:23:16;99571.66;;;7.66
82636;BMP280;72317;37.280;-121.948;2024-01-06T09:25:42;99567.47;;;7.65
82636;BMP280;72317;37.280;-121.948;2024-01-06T09:28:08;99565.72;;;7.80
82636;BMP280;72317;37.280;-121.948;2024-01-06T09:30:34;99589.13;;;7.63
82636;BMP280;72317;37.280;-121.948;2024-01-06T09:33:01;99609.75;;;7.66
82636;BMP280;72317;37.280;-121.948;2024-01-06T09:35:27;99618.72;;;7.55
82636;BMP280;72317;37.280;-121.948;2024-01-06T09:37:53;99640.25;;;7.39
82636;BMP280;72317;37.280;-121.948;2024-01-06T09:40:23;99649.78;;;7.13
82636;BMP280;72317;37.280;-121.948;2024-01-06T09:42:50;99640.31;;;7.16
82636;BMP280;72317;37.280;-121.948;2024-01-06T09:45:17;99626.84;;;7.32
82636;BMP280;72317;37.280;-121.948;2024-01-06T09:47:48;99607.63;;;7.45
82636;BMP280;72317;37.280;-121.948;2024-01-06T09:50:18;99597.41;;;7.55
82636;BMP280;72317;37.280;-121.948;2024-01-06T09:52:46;99641.94;;;7.24
82636;BMP280;72317;37.280;-121.948;2024-01-06T09:55:28;99642.19;;;7.15
82636;BMP280;72317;37.280;-121.948;2024-01-06T09:57:55;99646.13;;;7.25
82636;BMP280;72317;37.280;-121.948;2024-01-06T10:00:21;99643.53;;;7.29
82636;BMP280;72317;37.280;-121.948;2024-01-06T10:02:51;99672.53;;;7.07
82636;BMP280;72317;37.280;-121.948;2024-01-06T10:05:17;99681.66;;;7.06
82636;BMP280;72317;37.280;-121.948;2024-01-06T10:07:45;99687.31;;;7.28
82636;BMP280;72317;37.280;-121.948;2024-01-06T10:10:11;99684.84;;;7.42
82636;BMP280;72317;37.280;-121.948;2024-01-06T10:12:38;99730.09;;;7.15
82636;BMP280;72317;37.280;-121.948;2024-01-06T10:15:06;99757.84;;;7.11
82636;BMP280;72317;37.280;-121.948;2024-01-06T10:17:33;99784.06;;;6.89
82636;BMP280;72317;37.280;-121.948;2024-01-06T10:20:00;99786.22;;;6.80
82636;BMP280;72317;37.280;-121.948;2024-01-06T10:22:26;99806.19;;;6.51
82636;BMP280;72317;37.280;-121.948;2024-01-06T10:24:55;99804.84;;;6.42
82636;BMP280;72317;37.280;-121.948;2024-01-06T10:27:21;99794.44;;;6.52
82636;BMP280;72317;37.280;-121.948;2024-01-06T10:29:47;99767.75;;;6.68
82636;BMP280;72317;37.280;-121.948;2024-01-06T10:32:13;99799.03;;;6.55
82636;BMP280;72317;37.280;-121.948;2024-01-06T10:34:40;99786.78;;;6.70
82636;BMP280;72317;37.280;-121.948;2024-01-06T10:37:08;99802.34;;;6.68
82636;BMP280;72317;37.280;-121.948;2024-01-06T10:39:34;99825.72;;;6.78
82636;BMP280;72317;37.280;-121.948;2024-01-06T10:42:01;99819.47;;;6.90
82636;BMP280;72317;37.280;-121.948;2024-01-06T10:44:28;99824.16;;;6.97
82636;BMP280;72317;37.280;-121.948;2024-01-06T10:46:55;99852.06;;;6.83
82636;BMP280;72317;37.280;-121.948;2024-01-06T10:49:25;99853.56;;;6.81
82636;BMP280;72317;37.280;-121.948;2024-01-06T10:51:53;99877.16;;;6.63
82636;BMP280;72317;37.280;-121.948;2024-01-06T10:54:21;99871.94;;;6.51
82636;BMP280;72317;37.280;-121.948;2024-01-06T10:56:48;99886.22;;;6.43
82636;BMP280;72317;37.280;-121.948;2024-01-06T10:59:18;99896.22;;;6.30
82636;BMP280;72317;37.280;-121.948;2024-01-06T11:01:49;99872.84;;;6.39
82636;BMP280;72317;37.280;-121.948;2024-01-06T11:04:18;99874.41;;;6.40
82636;BMP280;72317;37.280;-121.948;2024-01-06T11:06:45;99884.63;;;6.22
82636;BMP280;72317;37.280;-121.948;2024-01-06T11:11:44;99854.75;;;6.45
82636;BMP280;72317;37.280;-121.948;2024-01-06T11:14:29;99856.94;;;6.43
82636;BMP280;72317;37.280;-121.948;2024-01-06T11:16:55;99861.66;;;6.49
82636;BMP280;72317;37.280;-121.948;2024-01-06T11:22:28;99859.28;;;6.63
82636;BMP280;72317;37.280;-121.948;2024-01-06T11:25:06;99869.78;;;6.56
82636;BMP280;72317;37.280;-121.948;2024-01-06T11:27:33;99883.81;;;6.53
82636;BMP280;72317;37.280;-121.948;2024-01-06T11:30:02;99901.78;;;6.41
82636;BMP280;72317;37.280;-121.948;2024-01-06T11:32:34;99911.38;;;6.45
82636;BMP280;72317;37.280;-121.948;2024-01-06T11:35:12;99907.19;;;6.44
82636;BMP280;72317;37.280;-121.948;2024-01-06T11:40:15;99946.34;;;6.28
82636;BMP280;72317;37.280;-121.948;2024-01-06T11:42:43;99940.06;;;6.36
82636;BMP280;72317;37.280;-121.948;2024-01-06T11:45:10;99946.59;;;6.38
82636;BMP280;72317;37.280;-121.948;2024-01-06T11:47:36;99960.56;;;6.35
82636;BMP280;72317;37.280;-121.948;2024-01-06T11:50:03;99959.09;;;6.38
82636;BMP280;72317;37.280;-121.948;2024-01-06T11:52:33;99944.25;;;6.53
82636;BMP280;72317;37.280;-121.948;2024-01-06T11:55:00;99958.19;;;6.30
82636;BMP280;72317;37.280;-121.948;2024-01-06T11:57:28;99962.41;;;6.31
82636;BMP280;72317;37.280;-121.948;2024-01-06T11:59:54;99956.66;;;6.29
82636;BMP280;72317;37.280;-121.948;2024-01-06T12:02:21;99968.19;;;6.37
82636;BMP280;72317;37.280;-121.948;2024-01-06T12:04:51;99972.84;;;6.40
82636;BMP280;72317;37.280;-121.948;2024-01-06T12:07:21;99961.09;;;6.41
82636;BMP280;72317;37.280;-121.948;2024-01-06T12:09:59;99975.94;;;6.26
82636;BMP280;72317;37.280;-121.948;2024-01-06T12:12:26;99981.19;;;6.38
82636;BMP280;72317;37.280;-121.948;2024-01-06T12:14:52;99996.97;;;6.31
82636;BMP280;72317;37.280;-121.948;2024-01-06T12:17:21;99999.63;;;6.31
82636;BMP280;72317;37.280;-121.948;2024-01-06T12:19:47;100007.69;;;6.19
82636;BMP280;72317;37.280;-121.948;2024-01-06T12:22:15;100031.09;;;5.98
82636;BMP280;72317;37.280;-121.948;2024-01-06T12:24:42;100046.59;;;5.96
82636;BMP280;72317;37.280;-121.948;2024-01-06T12:27:09;100048.00;;;5.90
82636;BMP280;72317;37.280;-121.948;2024-01-06T12:29:39;100031.63;;;5.88
82636;BMP280;72317;37.280;-121.948;2024-01-06T12:32:07;100022.34;;;5.97
82636;BMP280;72317;37.280;-121.948;2024-01-06T12:34:34;100022.13;;;6.02
82636;BMP280;72317;37.280;-121.948;2024-01-06T12:37:01;100014.13;;;6.02
82636;BMP280;72317;37.280;-121.948;2024-01-06T12:39:31;100026.31;;;6.03
82636;BMP280;72317;37.280;-121.948;2024-01-06T12:41:58;100015.72;;;5.91
82636;BMP280;72317;37.280;-121.948;2024-01-06T12:44:27;100030.16;;;5.90
82636;BMP280;72317;37.280;-121.948;2024-01-06T12:46:54;100028.31;;;5.78
82636;BMP280;72317;37.280;-121.948;2024-01-06T12:49:20;100031.16;;;5.86
82636;BMP280;72317;37.280;-121.948;2024-01-06T12:51:46;100057.59;;;5.66
82636;BMP280;72317;37.280;-121.948;2024-01-06T12:54:12;100072.13;;;5.69
82636;BMP280;72317;37.280;-121.948;2024-01-06T12:56:38;100072.19;;;5.72
82636;BMP280;72317;37.280;-121.948;2024-01-06T12:59:06;100047.47;;;5.84
82636;BMP280;72317;37.280;-121.948;2024-01-06T13:01:32;100056.78;;;5.78
82636;BMP280;72317;37.280;-121.948;2024-01-06T13:03:58;100052.19;;;5.91
82636;BMP280;72317;37.280;-121.948;2024-01-06T13:06:26;100049.88;;;5.89
82636;BMP280;72317;37.280;-121.948;2024-01-06T13:08:52;100065.81;;;5.73
82636;BMP280;72317;37.280;-121.948;2024-01-06T13:11:19;100067.00;;;5.76
82636;BMP280;72317;37.280;-121.948;2024-01-06T13:13:46;100078.28;;;5.73
82636;BMP280;72317;37.280;-121.948;2024-01-06T13:16:12;100067.63;;;5.85
82636;BMP280;72317;37.280;-121.948;2024-01-06T13:18:38;100067.28;;;5.87
82636;BMP280;72317;37.280;-121.948;2024-01-06T13:21:04;100073.50;;;5.78
82636;BMP280;72317;37.280;-121.948;2024-01-06T13:23:30;100070.41;;;5.76
82636;BMP280;72317;37.280;-121.948;2024-01-06T13:25:57;100073.38;;;5.87
82636;BMP280;72317;37.280;-121.948;2024-01-06T13:28:23;100062.47;;;5.92
82636;BMP280;72317;37.280;-121.948;2024-01-06T13:30:50;100041.16;;;6.04
82636;BMP280;72317;37.280;-121.948;2024-01-06T13:33:16;100044.72;;;5.96
82636;BMP280;72317;37.280;-121.948;2024-01-06T13:35:42;100057.50;;;5.91
82636;BMP280;72317;37.280;-121.948;2024-01-06T13:38:10;100052.00;;;5.83
82636;BMP280;72317;37.280;-121.948;2024-01-06T13:40:36;100072.75;;;5.78
82636;BMP280;72317;37.280;-121.948;2024-01-06T13:43:03;100090.38;;;5.70
82636;BMP280;72317;37.280;-121.948;2024-01-06T13:45:31;100082.13;;;5.88
82636;BMP280;72317;37.280;-121.948;2024-01-06T13:47:57;100086.56;;;5.83
82636;BMP280;72317;37.280;-121.948;2024-01-06T13:50:23;100069.94;;;5.87
82636;BMP280;72317;37.280;-121.948;2024-01-06T13:52:49;100072.59;;;5.87
82636;BMP280;72317;37.280;-121.948;2024-01-06T13:55:16;100074.94;;;5.88
82636;BMP280;72317;37.280;-121.948;2024-01-06T13:57:42;100047.25;;;6.05
82636;BMP280;72317;37.280;-121.948;2024-01-06T14:00:09;100006.16;;;6.18
82636;BMP280;72317;37.280;-121.948;2024-01-06T14:02:37;99975.34;;;6.33
82636;BMP280;72317;37.280;-121.948;2024-01-06T14:05:04;99919.00;;;6.47
82636;BMP280;72317;37.280;-121.948;2024-01-06T14:07:35;99895.63;;;6.21
82636;BMP280;72317;37.280;-121.948;2024-01-06T14:10:02;99883.81;;;6.18
82636;BMP280;72317;37.280;-121.948;2024-01-06T14:12:29;99841.03;;;6.27
82636;BMP280;72317;37.280;-121.948;2024-01-06T14:14:56;99861.34;;;6.35
82636;BMP280;72317;37.280;-121.948;2024-01-06T14:17:23;99875.13;;;6.21
82636;BMP280;72317;37.280;-121.948;2024-01-06T14:19:49;99864.97;;;6.27
82636;BMP280;72317;37.280;-121.948;2024-01-06T14:22:15;99865.56;;;6.36
82636;BMP280;72317;37.280;-121.948;2024-01-06T14:24:43;99868.06;;;6.29
82636;BMP280;72317;37.280;-121.948;2024-01-06T14:27:09;99871.75;;;6.24
82636;BMP280;72317;37.280;-121.948;2024-01-06T14:29:35;99863.00;;;6.24
82636;BMP280;72317;37.280;-121.948;2024-01-06T14:32:01;99891.53;;;6.07
82636;BMP280;72317;37.280;-121.948;2024-01-06T14:34:28;99918.47;;;6.06
82636;BMP280;72317;37.280;-121.948;2024-01-06T14:36:54;99985.72;;;6.06
82636;BMP280;72317;37.280;-121.948;2024-01-06T14:39:20;99977.50;;;6.27
82636;BMP280;72317;37.280;-121.948;2024-01-06T14:41:49;99938.53;;;6.19
82636;BMP280;72317;37.280;-121.948;2024-01-06T14:44:16;99916.22;;;6.24
82636;BMP280;72317;37.280;-121.948;2024-01-06T14:46:43;99905.16;;;6.22
82636;BMP280;72317;37.280;-121.948;2024-01-06T14:49:09;99888.06;;;6.23
82636;BMP280;72317;37.280;-121.948;2024-01-06T14:51:36;99888.81;;;6.39
82636;BMP280;72317;37.280;-121.948;2024-01-06T14:54:02;99902.31;;;6.30
82636;BMP280;72317;37.280;-121.948;2024-01-06T14:56:29;99907.03;;;6.21
82636;BMP280;72317;37.280;-121.948;2024-01-06T14:58:56;99913.84;;;6.38
82636;BMP280;72317;37.280;-121.948;2024-01-06T15:01:22;99901.88;;;6.44
82636;BMP280;72317;37.280;-121.948;2024-01-06T15:03:48;99857.81;;;6.47
82636;BMP280;72317;37.280;-121.948;2024-01-06T15:06:14;99794.09;;;6.54
82636;BMP280;72317;37.280;-121.948;2024-01-06T15:08:42;99729.00;;;6.51
82636;BMP280;72317;37.280;-121.948;2024-01-06T15:11:09;99723.28;;;6.49
82636;BMP280;72317;37.280;-121.948;2024-01-06T15:13:35;99727.06;;;6.48
82636;BMP280;72317;37.280;-121.948;2024-01-06T15:16:02;99736.56;;;6.49
